sensor_id;sensor_type;location;lat;lon;timestamp;temperature;humidity
76897;SHT30;65856;52.178;21.176;2023-04-03T00:00:46;3.70;61.67
76897;SHT30;65856;52.178;21.176;2023-04-03T00:03:15;3.71;61.74
76897;SHT30;65856;52.178;21.176;2023-04-03T00:05:43;3.68;61.59
76897;SHT30;65856;52.178;21.176;2023-04-03T00:08:12;3.68;61.64
76897;SHT30;65856;52.178;21.176;2023-04-03T00:10:40;3.66;61.62
76897;SHT30;65856;52.178;21.176;2023-04-03T00:13:08;3.64;61.80
76897;SHT30;65856;52.178;21.176;2023-04-03T00:15:37;3.62;61.66
76897;SHT30;65856;52.178;21.176;2023-04-03T00:18:05;3.54;61.38
76897;SHT30;65856;52.178;21.176;2023-04-03T00:20:34;3.47;61.22
76897;SHT30;65856;52.178;21.176;2023-04-03T00:23:03;3.40;61.32
76897;SHT30;65856;52.178;21.176;2023-04-03T00:25:30;3.37;61.64
76897;SHT30;65856;52.178;21.176;2023-04-03T00:27:59;3.33;61.55
76897;SHT30;65856;52.178;21.176;2023-04-03T00:30:27;3.25;61.52
76897;SHT30;65856;52.178;21.176;2023-04-03T00:32:55;3.20;61.78
76897;SHT30;65856;52.178;21.176;2023-04-03T00:35:23;3.20;61.57
76897;SHT30;65856;52.178;21.176;2023-04-03T00:37:52;3.16;61.57
76897;SHT30;65856;52.178;21.176;2023-04-03T00:40:21;3.14;61.89
76897;SHT30;65856;52.178;21.176;2023-04-03T00:42:54;3.11;61.39
76897;SHT30;65856;52.178;21.176;2023-04-03T00:45:32;3.05;61.32
76897;SHT30;65856;52.178;21.176;2023-04-03T00:48:04;3.00;61.69
76897;SHT30;65856;52.178;21.176;2023-04-03T00:50:37;2.98;61.63
76897;SHT30;65856;52.178;21.176;2023-04-03T00:53:08;2.96;61.72
76897;SHT30;65856;52.178;21.176;2023-04-03T00:55:42;2.91;61.33
76897;SHT30;65856;52.178;21.176;2023-04-03T00:58:12;2.88;61.51
76897;SHT30;65856;52.178;21.176;2023-04-03T01:00:48;2.87;61.71
76897;SHT30;65856;52.178;21.176;2023-04-03T01:03:23;2.84;61.59
76897;SHT30;65856;52.178;21.176;2023-04-03T01:05:51;2.82;61.58
76897;SHT30;65856;52.178;21.176;2023-04-03T01:08:19;2.74;60.98
76897;SHT30;65856;52.178;21.176;2023-04-03T01:10:47;2.70;61.21
76897;SHT30;65856;52.178;21.176;2023-04-03T01:13:21;2.69;61.44
76897;SHT30;65856;52.178;21.176;2023-04-03T01:15:53;2.71;61.38
76897;SHT30;65856;52.178;21.176;2023-04-03T01:18:22;2.69;61.22
76897;SHT30;65856;52.178;21.176;2023-04-03T01:21:02;2.66;61.40
76897;SHT30;65856;52.178;21.176;2023-04-03T01:23:59;2.61;61.04
76897;SHT30;65856;52.178;21.176;2023-04-03T01:26:47;2.56;61.01
76897;SHT30;65856;52.178;21.176;2023-04-03T01:29:16;2.50;61.06
76897;SHT30;65856;52.178;21.176;2023-04-03T01:31:52;2.46;61.13
76897;SHT30;65856;52.178;21.176;2023-04-03T01:34:22;2.41;61.14
76897;SHT30;65856;52.178;21.176;2023-04-03T01:36:51;2.41;61.28
76897;SHT30;65856;52.178;21.176;2023-04-03T01:39:20;2.38;61.22
76897;SHT30;65856;52.178;21.176;2023-04-03T01:41:48;2.33;61.34
76897;SHT30;65856;52.178;21.176;2023-04-03T01:44:17;2.30;61.34
76897;SHT30;65856;52.178;21.176;2023-04-03T01:46:45;2.26;61.30
76897;SHT30;65856;52.178;21.176;2023-04-03T01:49:13;2.26;61.55
76897;SHT30;65856;52.178;21.176;2023-04-03T01:51:41;2.25;61.52
76897;SHT30;65856;52.178;21.176;2023-04-03T01:54:09;2.24;61.44
76897;SHT30;65856;52.178;21.176;2023-04-03T01:56:37;2.21;61.50
76897;SHT30;65856;52.178;21.176;2023-04-03T01:59:05;2.20;61.59
76897;SHT30;65856;52.178;21.176;2023-04-03T02:01:33;2.19;61.47
76897;SHT30;65856;52.178;21.176;2023-04-03T02:04:01;2.17;61.51
76897;SHT30;65856;52.178;21.176;2023-04-03T02:06:28;2.15;61.63
76897;SHT30;65856;52.178;21.176;2023-04-03T02:08:56;2.14;61.84
76897;SHT30;65856;52.178;21.176;2023-04-03T02:11:24;2.13;61.56
76897;SHT30;65856;52.178;21.176;2023-04-03T02:13:52;2.07;61.59
76897;SHT30;65856;52.178;21.176;2023-04-03T02:16:20;2.04;61.69
76897;SHT30;65856;52.178;21.176;2023-04-03T02:18:48;1.98;61.70
76897;SHT30;65856;52.178;21.176;2023-04-03T02:21:16;1.98;62.03
76897;SHT30;65856;52.178;21.176;2023-04-03T02:23:44;1.98;61.91
76897;SHT30;65856;52.178;21.176;2023-04-03T02:26:12;1.93;61.77
76897;SHT30;65856;52.178;21.176;2023-04-03T02:28:42;1.84;61.74
76897;SHT30;65856;52.178;21.176;2023-04-03T02:31:10;1.82;62.11
76897;SHT30;65856;52.178;21.176;2023-04-03T02:33:38;1.81;62.12
76897;SHT30;65856;52.178;21.176;2023-04-03T02:36:07;1.79;62.17
76897;SHT30;65856;52.178;21.176;2023-04-03T02:38:35;1.76;62.10
76897;SHT30;65856;52.178;21.176;2023-04-03T02:41:04;1.74;62.27
76897;SHT30;65856;52.178;21.176;2023-04-03T02:43:34;1.74;62.20
76897;SHT30;65856;52.178;21.176;2023-04-03T02:46:03;1.74;62.36
76897;SHT30;65856;52.178;21.176;2023-04-03T02:48:32;1.74;62.47
76897;SHT30;65856;52.178;21.176;2023-04-03T02:51:00;1.71;62.17
76897;SHT30;65856;52.178;21.176;2023-04-03T02:53:28;1.63;62.11
76897;SHT30;65856;52.178;21.176;2023-04-03T02:55:56;1.62;62.45
76897;SHT30;65856;52.178;21.176;2023-04-03T02:58:24;1.61;62.52
76897;SHT30;65856;52.178;21.176;2023-04-03T03:00:52;1.58;62.62
76897;SHT30;65856;52.178;21.176;2023-04-03T03:03:21;1.55;62.55
76897;SHT30;65856;52.178;21.176;2023-04-03T03:05:48;1.54;62.58
76897;SHT30;65856;52.178;21.176;2023-04-03T03:08:26;1.53;62.51
76897;SHT30;65856;52.178;21.176;2023-04-03T03:10:54;1.54;62.68
76897;SHT30;65856;52.178;21.176;2023-04-03T03:13:22;1.54;62.67
76897;SHT30;65856;52.178;21.176;2023-04-03T03:15:50;1.52;62.49
76897;SHT30;65856;52.178;21.176;2023-04-03T03:18:18;1.50;62.65
76897;SHT30;65856;52.178;21.176;2023-04-03T03:20:46;1.51;62.74
76897;SHT30;65856;52.178;21.176;2023-04-03T03:23:18;1.49;62.71
76897;SHT30;65856;52.178;21.176;2023-04-03T03:25:47;1.44;62.70
76897;SHT30;65856;52.178;21.176;2023-04-03T03:28:15;1.41;62.87
76897;SHT30;65856;52.178;21.176;2023-04-03T03:30:43;1.39;63.08
76897;SHT30;65856;52.178;21.176;2023-04-03T03:33:11;1.36;63.08
76897;SHT30;65856;52.178;21.176;2023-04-03T03:35:38;1.30;62.99
76897;SHT30;65856;52.178;21.176;2023-04-03T03:38:07;1.25;63.23
76897;SHT30;65856;52.178;21.176;2023-04-03T03:40:35;1.23;63.46
76897;SHT30;65856;52.178;21.176;2023-04-03T03:43:03;1.23;63.40
76897;SHT30;65856;52.178;21.176;2023-04-03T03:45:31;1.25;63.37
76897;SHT30;65856;52.178;21.176;2023-04-03T03:47:59;1.25;63.47
76897;SHT30;65856;52.178;21.176;2023-04-03T03:50:27;1.26;63.45
76897;SHT30;65856;52.178;21.176;2023-04-03T03:52:55;1.25;63.48
76897;SHT30;65856;52.178;21.176;2023-04-03T03:55:22;1.22;63.38
76897;SHT30;65856;52.178;21.176;2023-04-03T03:57:51;1.19;63.52
76897;SHT30;65856;52.178;21.176;2023-04-03T04:00:19;1.15;63.63
76897;SHT30;65856;52.178;21.176;2023-04-03T04:02:47;1.13;63.76
76897;SHT30;65856;52.178;21.176;2023-04-03T04:05:15;1.09;63.84
76897;SHT30;65856;52.178;21.176;2023-04-03T04:07:43;1.07;63.97
76897;SHT30;65856;52.178;21.176;2023-04-03T04:10:11;1.05;63.97
76897;SHT30;65856;52.178;21.176;2023-04-03T04:12:39;1.03;64.06
76897;SHT30;65856;52.178;21.176;2023-04-03T04:15:08;1.00;63.96
76897;SHT30;65856;52.178;21.176;2023-04-03T04:17:37;0.99;64.14
76897;SHT30;65856;52.178;21.176;2023-04-03T04:20:06;0.96;64.23
76897;SHT30;65856;52.178;21.176;2023-04-03T04:22:35;0.92;64.35
76897;SHT30;65856;52.178;21.176;2023-04-03T04:25:04;0.92;64.40
76897;SHT30;65856;52.178;21.176;2023-04-03T04:27:32;0.93;64.39
76897;SHT30;65856;52.178;21.176;2023-04-03T04:30:00;0.95;64.29
76897;SHT30;65856;52.178;21.176;2023-04-03T04:32:28;0.96;64.40
76897;SHT30;65856;52.178;21.176;2023-04-03T04:34:56;0.96;64.36
76897;SHT30;65856;52.178;21.176;2023-04-03T04:37:24;0.97;64.46
76897;SHT30;65856;52.178;21.176;2023-04-03T04:39:52;0.99;64.45
76897;SHT30;65856;52.178;21.176;2023-04-03T04:42:20;0.99;64.36
76897;SHT30;65856;52.178;21.176;2023-04-03T04:44:48;1.00;64.56
76897;SHT30;65856;52.178;21.176;2023-04-03T04:47:17;1.01;64.34
76897;SHT30;65856;52.178;21.176;2023-04-03T04:49:45;0.98;64.25
76897;SHT30;65856;52.178;21.176;2023-04-03T04:52:13;1.00;64.22
76897;SHT30;65856;52.178;21.176;2023-04-03T04:54:41;1.01;64.32
76897;SHT30;65856;52.178;21.176;2023-04-03T04:57:09;1.02;64.25
76897;SHT30;65856;52.178;21.176;2023-04-03T04:59:37;1.01;64.27
76897;SHT30;65856;52.178;21.176;2023-04-03T05:02:05;1.02;64.47
76897;SHT30;65856;52.178;21.176;2023-04-03T05:04:33;1.05;64.41
76897;SHT30;65856;52.178;21.176;2023-04-03T05:07:00;1.07;64.34
76897;SHT30;65856;52.178;21.176;2023-04-03T05:09:28;1.08;64.26
76897;SHT30;65856;52.178;21.176;2023-04-03T05:11:56;1.07;64.04
76897;SHT30;65856;52.178;21.176;2023-04-03T05:14:24;1.14;65.47
76897;SHT30;65856;52.178;21.176;2023-04-03T05:16:52;1.23;64.39
76897;SHT30;65856;52.178;21.176;2023-04-03T05:19:20;1.21;63.94
76897;SHT30;65856;52.178;21.176;2023-04-03T05:21:48;1.19;63.88
76897;SHT30;65856;52.178;21.176;2023-04-03T05:24:16;1.15;63.99
76897;SHT30;65856;52.178;21.176;2023-04-03T05:26:44;1.14;63.90
76897;SHT30;65856;52.178;21.176;2023-04-03T05:29:12;1.14;63.81
76897;SHT30;65856;52.178;21.176;2023-04-03T05:31:40;1.16;63.92
76897;SHT30;65856;52.178;21.176;2023-04-03T05:34:08;1.16;63.75
76897;SHT30;65856;52.178;21.176;2023-04-03T05:36:35;1.18;63.78
76897;SHT30;65856;52.178;21.176;2023-04-03T05:39:03;1.18;63.74
76897;SHT30;65856;52.178;21.176;2023-04-03T05:41:31;1.17;63.80
76897;SHT30;65856;52.178;21.176;2023-04-03T05:43:59;1.20;64.58
76897;SHT30;65856;52.178;21.176;2023-04-03T05:46:27;1.38;65.48
76897;SHT30;65856;52.178;21.176;2023-04-03T05:48:56;1.51;64.04
76897;SHT30;65856;52.178;21.176;2023-04-03T05:51:24;1.60;63.47
76897;SHT30;65856;52.178;21.176;2023-04-03T05:53:59;1.75;63.19
76897;SHT30;65856;52.178;21.176;2023-04-03T05:56:35;1.97;62.87
76897;SHT30;65856;52.178;21.176;2023-04-03T05:59:04;2.19;62.22
76897;SHT30;65856;52.178;21.176;2023-04-03T06:01:32;2.48;61.61
76897;SHT30;65856;52.178;21.176;2023-04-03T06:04:00;2.78;61.25
76897;SHT30;65856;52.178;21.176;2023-04-03T06:06:42;3.11;60.33
76897;SHT30;65856;52.178;21.176;2023-04-03T06:09:13;3.45;59.51
76897;SHT30;65856;52.178;21.176;2023-04-03T06:11:42;3.86;59.17
76897;SHT30;65856;52.178;21.176;2023-04-03T06:14:10;4.18;57.92
76897;SHT30;65856;52.178;21.176;2023-04-03T06:16:39;4.43;57.20
76897;SHT30;65856;52.178;21.176;2023-04-03T06:19:07;4.72;56.85
76897;SHT30;65856;52.178;21.176;2023-04-03T06:21:37;5.16;60.07
76897;SHT30;65856;52.178;21.176;2023-04-03T06:24:05;5.54;55.05
76897;SHT30;65856;52.178;21.176;2023-04-03T06:26:34;5.63;53.65
76897;SHT30;65856;52.178;21.176;2023-04-03T06:29:02;5.79;53.83
76897;SHT30;65856;52.178;21.176;2023-04-03T06:31:30;6.05;53.03
76897;SHT30;65856;52.178;21.176;2023-04-03T06:33:58;6.27;52.24
76897;SHT30;65856;52.178;21.176;2023-04-03T06:36:26;6.48;52.32
76897;SHT30;65856;52.178;21.176;2023-04-03T06:38:54;6.75;51.55
76897;SHT30;65856;52.178;21.176;2023-04-03T06:41:22;6.93;51.11
76897;SHT30;65856;52.178;21.176;2023-04-03T06:43:51;7.11;50.39
76897;SHT30;65856;52.178;21.176;2023-04-03T06:46:22;7.30;49.68
76897;SHT30;65856;52.178;21.176;2023-04-03T06:48:51;7.48;49.53
76897;SHT30;65856;52.178;21.176;2023-04-03T06:51:21;7.70;52.21
76897;SHT30;65856;52.178;21.176;2023-04-03T06:53:51;8.04;49.55
76897;SHT30;65856;52.178;21.176;2023-04-03T06:56:21;8.22;48.91
76897;SHT30;65856;52.178;21.176;2023-04-03T06:58:50;8.38;47.60
76897;SHT30;65856;52.178;21.176;2023-04-03T07:01:20;8.47;47.65
76897;SHT30;65856;52.178;21.176;2023-04-03T07:03:48;8.54;46.05
76897;SHT30;65856;52.178;21.176;2023-04-03T07:06:16;8.55;45.78
76897;SHT30;65856;52.178;21.176;2023-04-03T07:08:46;8.54;45.32
76897;SHT30;65856;52.178;21.176;2023-04-03T07:11:16;8.55;45.36
76897;SHT30;65856;52.178;21.176;2023-04-03T07:13:44;8.70;45.68
76897;SHT30;65856;52.178;21.176;2023-04-03T07:16:12;8.77;44.85
76897;SHT30;65856;52.178;21.176;2023-04-03T07:18:40;8.81;45.18
76897;SHT30;65856;52.178;21.176;2023-04-03T07:21:08;8.99;45.13
76897;SHT30;65856;52.178;21.176;2023-04-03T07:23:36;9.09;43.38
76897;SHT30;65856;52.178;21.176;2023-04-03T07:26:05;9.02;43.85
76897;SHT30;65856;52.178;21.176;2023-04-03T07:28:33;9.16;43.88
76897;SHT30;65856;52.178;21.176;2023-04-03T07:31:02;9.15;43.81
76897;SHT30;65856;52.178;21.176;2023-04-03T07:33:34;9.15;43.02
76897;SHT30;65856;52.178;21.176;2023-04-03T07:36:03;9.00;42.50
76897;SHT30;65856;52.178;21.176;2023-04-03T07:38:33;8.95;42.71
76897;SHT30;65856;52.178;21.176;2023-04-03T07:41:02;9.07;43.33
76897;SHT30;65856;52.178;21.176;2023-04-03T07:43:31;9.25;43.03
76897;SHT30;65856;52.178;21.176;2023-04-03T07:45:59;9.46;43.33
76897;SHT30;65856;52.178;21.176;2023-04-03T07:48:30;9.50;40.86
76897;SHT30;65856;52.178;21.176;2023-04-03T07:50:59;9.26;40.38
76897;SHT30;65856;52.178;21.176;2023-04-03T07:53:28;9.25;39.55
76897;SHT30;65856;52.178;21.176;2023-04-03T07:55:57;9.09;40.29
76897;SHT30;65856;52.178;21.176;2023-04-03T07:58:25;9.14;41.14
76897;SHT30;65856;52.178;21.176;2023-04-03T08:00:53;9.15;40.12
76897;SHT30;65856;52.178;21.176;2023-04-03T08:03:21;9.10;40.35
76897;SHT30;65856;52.178;21.176;2023-04-03T08:05:50;8.85;40.81
76897;SHT30;65856;52.178;21.176;2023-04-03T08:08:19;8.74;40.90
76897;SHT30;65856;52.178;21.176;2023-04-03T08:10:50;8.56;40.20
76897;SHT30;65856;52.178;21.176;2023-04-03T08:13:20;8.27;40.38
76897;SHT30;65856;52.178;21.176;2023-04-03T08:15:48;8.35;41.18
76897;SHT30;65856;52.178;21.176;2023-04-03T08:18:17;8.56;40.19
76897;SHT30;65856;52.178;21.176;2023-04-03T08:20:47;8.64;40.03
76897;SHT30;65856;52.178;21.176;2023-04-03T08:23:15;8.72;40.41
76897;SHT30;65856;52.178;21.176;2023-04-03T08:25:44;8.90;40.82
76897;SHT30;65856;52.178;21.176;2023-04-03T08:28:12;9.06;39.89
76897;SHT30;65856;52.178;21.176;2023-04-03T08:30:40;9.13;39.34
76897;SHT30;65856;52.178;21.176;2023-04-03T08:33:09;9.04;38.52
76897;SHT30;65856;52.178;21.176;2023-04-03T08:35:40;9.06;38.99
76897;SHT30;65856;52.178;21.176;2023-04-03T08:38:09;9.10;39.05
76897;SHT30;65856;52.178;21.176;2023-04-03T08:40:37;9.07;39.24
76897;SHT30;65856;52.178;21.176;2023-04-03T08:43:13;9.08;39.86
76897;SHT30;65856;52.178;21.176;2023-04-03T08:46:00;9.20;38.54
76897;SHT30;65856;52.178;21.176;2023-04-03T08:48:34;9.06;38.04
76897;SHT30;65856;52.178;21.176;2023-04-03T08:51:10;8.80;38.45
76897;SHT30;65856;52.178;21.176;2023-04-03T08:53:43;8.93;39.48
76897;SHT30;65856;52.178;21.176;2023-04-03T08:56:22;8.97;38.30
76897;SHT30;65856;52.178;21.176;2023-04-03T08:58:54;8.73;37.99
76897;SHT30;65856;52.178;21.176;2023-04-03T09:01:27;8.46;38.47
76897;SHT30;65856;52.178;21.176;2023-04-03T09:04:02;8.10;38.76
76897;SHT30;65856;52.178;21.176;2023-04-03T09:06:38;7.93;39.61
76897;SHT30;65856;52.178;21.176;2023-04-03T09:09:11;8.01;39.56
76897;SHT30;65856;52.178;21.176;2023-04-03T09:11:53;8.20;40.14
76897;SHT30;65856;52.178;21.176;2023-04-03T09:14:36;8.49;39.90
76897;SHT30;65856;52.178;21.176;2023-04-03T09:17:13;8.43;38.75
76897;SHT30;65856;52.178;21.176;2023-04-03T09:19:54;8.45;40.83
76897;SHT30;65856;52.178;21.176;2023-04-03T09:22:34;8.69;39.13
76897;SHT30;65856;52.178;21.176;2023-04-03T09:25:10;8.89;39.70
76897;SHT30;65856;52.178;21.176;2023-04-03T09:27:43;9.26;40.00
76897;SHT30;65856;52.178;21.176;2023-04-03T09:30:13;9.56;39.44
76897;SHT30;65856;52.178;21.176;2023-04-03T09:32:44;9.53;38.23
76897;SHT30;65856;52.178;21.176;2023-04-03T09:35:19;9.23;37.29
76897;SHT30;65856;52.178;21.176;2023-04-03T09:37:52;8.73;37.72
76897;SHT30;65856;52.178;21.176;2023-04-03T09:40:30;8.43;38.22
76897;SHT30;65856;52.178;21.176;2023-04-03T09:43:19;8.50;38.72
76897;SHT30;65856;52.178;21.176;2023-04-03T09:45:53;8.68;37.91
76897;SHT30;65856;52.178;21.176;2023-04-03T09:48:23;8.85;38.14
76897;SHT30;65856;52.178;21.176;2023-04-03T09:50:57;8.97;38.00
76897;SHT30;65856;52.178;21.176;2023-04-03T09:53:35;8.92;37.75
76897;SHT30;65856;52.178;21.176;2023-04-03T09:56:18;8.77;37.36
76897;SHT30;65856;52.178;21.176;2023-04-03T09:58:51;8.73;37.67
76897;SHT30;65856;52.178;21.176;2023-04-03T10:01:40;8.98;38.64
76897;SHT30;65856;52.178;21.176;2023-04-03T10:04:22;8.96;38.20
76897;SHT30;65856;52.178;21.176;2023-04-03T10:06:51;8.70;38.44
76897;SHT30;65856;52.178;21.176;2023-04-03T10:09:23;8.48;38.25
76897;SHT30;65856;52.178;21.176;2023-04-03T10:12:00;8.32;38.42
76897;SHT30;65856;52.178;21.176;2023-04-03T10:14:32;8.32;38.53
76897;SHT30;65856;52.178;21.176;2023-04-03T10:17:04;8.48;39.24
76897;SHT30;65856;52.178;21.176;2023-04-03T10:19:49;8.74;38.96
76897;SHT30;65856;52.178;21.176;2023-04-03T10:22:25;8.71;38.44
76897;SHT30;65856;52.178;21.176;2023-04-03T10:25:07;8.36;37.57
76897;SHT30;65856;52.178;21.176;2023-04-03T10:27:49;8.00;38.52
76897;SHT30;65856;52.178;21.176;2023-04-03T10:30:33;7.82;38.50
76897;SHT30;65856;52.178;21.176;2023-04-03T10:33:18;7.70;38.77
76897;SHT30;65856;52.178;21.176;2023-04-03T10:36:04;7.86;39.01
76897;SHT30;65856;52.178;21.176;2023-04-03T10:38:45;7.91;38.52
76897;SHT30;65856;52.178;21.176;2023-04-03T10:41:28;7.83;38.38
76897;SHT30;65856;52.178;21.176;2023-04-03T10:44:14;7.76;38.54
76897;SHT30;65856;52.178;21.176;2023-04-03T10:46:52;7.74;38.96
76897;SHT30;65856;52.178;21.176;2023-04-03T10:49:39;7.91;38.61
76897;SHT30;65856;52.178;21.176;2023-04-03T10:52:23;7.93;38.42
76897;SHT30;65856;52.178;21.176;2023-04-03T10:55:01;7.87;38.07
76897;SHT30;65856;52.178;21.176;2023-04-03T10:57:42;7.73;38.36
76897;SHT30;65856;52.178;21.176;2023-04-03T11:00:14;7.77;38.84
76897;SHT30;65856;52.178;21.176;2023-04-03T11:02:49;7.90;39.03
76897;SHT30;65856;52.178;21.176;2023-04-03T11:05:25;8.10;38.51
76897;SHT30;65856;52.178;21.176;2023-04-03T11:08:03;8.18;37.80
76897;SHT30;65856;52.178;21.176;2023-04-03T11:10:41;8.25;37.34
76897;SHT30;65856;52.178;21.176;2023-04-03T11:13:13;8.24;38.95
76897;SHT30;65856;52.178;21.176;2023-04-03T11:15:45;8.40;39.25
76897;SHT30;65856;52.178;21.176;2023-04-03T11:18:14;8.20;36.62
76897;SHT30;65856;52.178;21.176;2023-04-03T11:20:48;8.13;37.68
76897;SHT30;65856;52.178;21.176;2023-04-03T11:23:28;8.12;37.20
76897;SHT30;65856;52.178;21.176;2023-04-03T11:26:02;8.05;37.35
76897;SHT30;65856;52.178;21.176;2023-04-03T11:28:38;8.09;37.59
76897;SHT30;65856;52.178;21.176;2023-04-03T11:31:10;8.05;37.37
76897;SHT30;65856;52.178;21.176;2023-04-03T11:33:52;8.03;37.37
76897;SHT30;65856;52.178;21.176;2023-04-03T11:36:34;8.11;38.19
76897;SHT30;65856;52.178;21.176;2023-04-03T11:39:16;8.02;37.15
76897;SHT30;65856;52.178;21.176;2023-04-03T11:41:51;7.91;38.49
76897;SHT30;65856;52.178;21.176;2023-04-03T11:44:30;7.85;38.43
76897;SHT30;65856;52.178;21.176;2023-04-03T11:47:02;7.89;38.47
76897;SHT30;65856;52.178;21.176;2023-04-03T12:01:49;7.74;37.90
76897;SHT30;65856;52.178;21.176;2023-04-03T12:04:20;7.61;38.52
76897;SHT30;65856;52.178;21.176;2023-04-03T12:07:01;7.56;39.16
76897;SHT30;65856;52.178;21.176;2023-04-03T12:12:42;7.77;38.71
76897;SHT30;65856;52.178;21.176;2023-04-03T12:15:41;7.74;37.72
76897;SHT30;65856;52.178;21.176;2023-04-03T12:24:42;7.53;37.68
76897;SHT30;65856;52.178;21.176;2023-04-03T12:27:24;7.65;38.32
76897;SHT30;65856;52.178;21.176;2023-04-03T12:29:58;7.82;38.24
76897;SHT30;65856;52.178;21.176;2023-04-03T12:32:43;7.82;37.17
76897;SHT30;65856;52.178;21.176;2023-04-03T12:35:26;7.76;37.16
76897;SHT30;65856;52.178;21.176;2023-04-03T12:38:20;7.64;37.05
76897;SHT30;65856;52.178;21.176;2023-04-03T12:41:14;7.59;37.67
76897;SHT30;65856;52.178;21.176;2023-04-03T12:43:56;7.63;38.24
76897;SHT30;65856;52.178;21.176;2023-04-03T12:46:47;7.72;37.97
76897;SHT30;65856;52.178;21.176;2023-04-03T12:49:24;7.65;37.33
76897;SHT30;65856;52.178;21.176;2023-04-03T12:52:03;7.51;37.79
76897;SHT30;65856;52.178;21.176;2023-04-03T12:54:44;7.34;37.40
76897;SHT30;65856;52.178;21.176;2023-04-03T12:57:16;7.34;38.16
76897;SHT30;65856;52.178;21.176;2023-04-03T12:59:47;7.41;37.39
76897;SHT30;65856;52.178;21.176;2023-04-03T13:02:20;7.48;37.88
76897;SHT30;65856;52.178;21.176;2023-04-03T13:04:53;7.58;38.21
76897;SHT30;65856;52.178;21.176;2023-04-03T13:07:24;7.58;37.49
76897;SHT30;65856;52.178;21.176;2023-04-03T13:10:00;7.46;36.76
76897;SHT30;65856;52.178;21.176;2023-04-03T13:12:45;7.28;36.68
76897;SHT30;65856;52.178;21.176;2023-04-03T13:15:15;7.21;36.46
76897;SHT30;65856;52.178;21.176;2023-04-03T13:17:48;7.23;36.96
76897;SHT30;65856;52.178;21.176;2023-04-03T13:20:19;7.27;37.14
76897;SHT30;65856;52.178;21.176;2023-04-03T13:22:53;7.27;37.31
76897;SHT30;65856;52.178;21.176;2023-04-03T13:25:29;7.21;37.48
76897;SHT30;65856;52.178;21.176;2023-04-03T13:28:01;7.14;38.03
76897;SHT30;65856;52.178;21.176;2023-04-03T13:30:37;7.09;37.94
76897;SHT30;65856;52.178;21.176;2023-04-03T13:33:18;7.01;38.24
76897;SHT30;65856;52.178;21.176;2023-04-03T13:35:54;6.97;38.31
76897;SHT30;65856;52.178;21.176;2023-04-03T13:38:26;7.00;39.03
76897;SHT30;65856;52.178;21.176;2023-04-03T13:40:59;7.08;39.13
76897;SHT30;65856;52.178;21.176;2023-04-03T13:43:31;7.12;38.03
76897;SHT30;65856;52.178;21.176;2023-04-03T13:46:04;7.10;37.68
76897;SHT30;65856;52.178;21.176;2023-04-03T13:48:52;7.10;37.77
76897;SHT30;65856;52.178;21.176;2023-04-03T13:51:22;7.10;37.83
76897;SHT30;65856;52.178;21.176;2023-04-03T13:53:55;7.08;38.36
76897;SHT30;65856;52.178;21.176;2023-04-03T13:56:29;7.07;38.66
76897;SHT30;65856;52.178;21.176;2023-04-03T13:59:03;7.08;39.18
76897;SHT30;65856;52.178;21.176;2023-04-03T14:01:49;7.13;39.38
76897;SHT30;65856;52.178;21.176;2023-04-03T14:04:21;7.18;39.19
76897;SHT30;65856;52.178;21.176;2023-04-03T14:06:53;7.21;39.24
76897;SHT30;65856;52.178;21.176;2023-04-03T14:09:23;7.20;38.97
76897;SHT30;65856;52.178;21.176;2023-04-03T14:11:54;7.16;38.38
76897;SHT30;65856;52.178;21.176;2023-04-03T14:14:27;7.13;38.87
76897;SHT30;65856;52.178;21.176;2023-04-03T14:17:01;7.11;38.53
76897;SHT30;65856;52.178;21.176;2023-04-03T14:19:39;7.12;38.83
76897;SHT30;65856;52.178;21.176;2023-04-03T14:22:12;7.14;39.28
76897;SHT30;65856;52.178;21.176;2023-04-03T14:24:44;7.16;38.92
76897;SHT30;65856;52.178;21.176;2023-04-03T14:27:15;7.20;39.35
76897;SHT30;65856;52.178;21.176;2023-04-03T14:29:47;7.19;38.78
76897;SHT30;65856;52.178;21.176;2023-04-03T14:32:18;7.16;38.76
76897;SHT30;65856;52.178;21.176;2023-04-03T14:34:48;7.13;39.01
76897;SHT30;65856;52.178;21.176;2023-04-03T14:37:19;7.12;39.23
76897;SHT30;65856;52.178;21.176;2023-04-03T14:39:49;7.09;39.25
76897;SHT30;65856;52.178;21.176;2023-04-03T14:42:20;7.03;39.53
76897;SHT30;65856;52.178;21.176;2023-04-03T14:44:51;6.98;39.10
76897;SHT30;65856;52.178;21.176;2023-04-03T14:47:21;6.94;38.93
76897;SHT30;65856;52.178;21.176;2023-04-03T14:49:53;6.93;39.32
76897;SHT30;65856;52.178;21.176;2023-04-03T14:52:23;6.95;41.10
76897;SHT30;65856;52.178;21.176;2023-04-03T14:54:55;7.29;46.70
76897;SHT30;65856;52.178;21.176;2023-04-03T14:57:25;7.52;40.16
76897;SHT30;65856;52.178;21.176;2023-04-03T14:59:54;7.43;39.56
76897;SHT30;65856;52.178;21.176;2023-04-03T15:02:25;7.40;39.93
76897;SHT30;65856;52.178;21.176;2023-04-03T15:04:56;7.27;38.65
76897;SHT30;65856;52.178;21.176;2023-04-03T15:07:26;7.13;38.72
76897;SHT30;65856;52.178;21.176;2023-04-03T15:09:58;7.02;39.12
76897;SHT30;65856;52.178;21.176;2023-04-03T15:12:32;6.98;39.38
76897;SHT30;65856;52.178;21.176;2023-04-03T15:15:00;6.95;39.49
76897;SHT30;65856;52.178;21.176;2023-04-03T15:17:28;6.98;40.55
76897;SHT30;65856;52.178;21.176;2023-04-03T15:19:56;6.99;39.61
76897;SHT30;65856;52.178;21.176;2023-04-03T15:22:26;6.91;39.57
76897;SHT30;65856;52.178;21.176;2023-04-03T15:24:54;6.83;39.33
76897;SHT30;65856;52.178;21.176;2023-04-03T15:27:22;6.75;40.03
76897;SHT30;65856;52.178;21.176;2023-04-03T15:29:50;6.74;40.53
76897;SHT30;65856;52.178;21.176;2023-04-03T15:32:18;6.74;40.24
76897;SHT30;65856;52.178;21.176;2023-04-03T15:34:46;6.74;40.27
76897;SHT30;65856;52.178;21.176;2023-04-03T15:37:14;6.72;40.09
76897;SHT30;65856;52.178;21.176;2023-04-03T15:39:41;6.71;40.00
76897;SHT30;65856;52.178;21.176;2023-04-03T15:42:09;6.67;39.63
76897;SHT30;65856;52.178;21.176;2023-04-03T15:44:38;6.60;39.50
76897;SHT30;65856;52.178;21.176;2023-04-03T15:47:08;6.55;40.06
76897;SHT30;65856;52.178;21.176;2023-04-03T15:49:36;6.51;39.82
76897;SHT30;65856;52.178;21.176;2023-04-03T15:52:05;6.48;40.40
76897;SHT30;65856;52.178;21.176;2023-04-03T15:54:33;6.48;40.51
76897;SHT30;65856;52.178;21.176;2023-04-03T15:57:01;6.47;40.86
76897;SHT30;65856;52.178;21.176;2023-04-03T15:59:29;6.49;41.02
76897;SHT30;65856;52.178;21.176;2023-04-03T16:01:57;6.53;41.17
76897;SHT30;65856;52.178;21.176;2023-04-03T16:04:29;6.55;41.43
76897;SHT30;65856;52.178;21.176;2023-04-03T16:06:59;6.54;40.75
76897;SHT30;65856;52.178;21.176;2023-04-03T16:09:28;6.50;40.56
76897;SHT30;65856;52.178;21.176;2023-04-03T16:11:57;6.50;40.83
76897;SHT30;65856;52.178;21.176;2023-04-03T16:14:26;6.53;41.04
76897;SHT30;65856;52.178;21.176;2023-04-03T16:16:55;6.53;40.91
76897;SHT30;65856;52.178;21.176;2023-04-03T16:19:24;6.50;41.10